Time;durP1;ratioP1;P1;durP2;ratioP2;P2;SDS_P1;SDS_P2;PMS_P1;PMS_P2;Temp;Humidity;BMP_temperature;BMP_pressure;BME280_temperature;BME280_humidity;BME280_pressure;Samples;Min_cycle;Max_cycle;Signal;HPM_P1;HPM_P2
2023/02/21 02:14:36;;;;;;;9.25;5.00;;;;;;;6.44;55.60;94880.91;4180307;28;20072;-58
2023/02/21 02:17:03;;;;;;;7.05;4.40;;;;;;;6.55;55.17;94880.00;4200331;28;20056;-56
2023/02/21 02:19:29;;;;;;;7.45;4.38;;;;;;;6.61;54.88;94884.69;4185329;28;20053;-58
2023/02/21 02:21:47;;;;;;;10.07;4.78;;;;;;;6.56;55.22;94885.09;4204840;28;20055;-59
2023/02/21 02:24:11;;;;;;;11.45;4.97;;;;;;;6.61;55.13;94889.09;4212010;28;20432;-57
2023/02/21 02:26:35;;;;;;;8.55;4.60;;;;;;;6.59;55.01;94880.59;4211715;28;20056;-60
2023/02/21 02:28:37;;;;;;;;;;;;;;;6.56;55.28;94882.50;4179047;28;20135;-58
2023/02/21 02:31:07;;;;;;;9.88;4.78;;;;;;;6.51;55.10;94876.00;4214118;28;19927;-57
2023/02/21 02:33:33;;;;;;;7.43;4.93;;;;;;;6.50;55.18;94879.59;4212671;28;20106;-57
2023/02/21 02:35:42;;;;;;;8.23;4.63;;;;;;;6.49;55.38;94868.31;4192688;28;20090;-59
2023/02/21 02:38:21;;;;;;;8.20;4.32;;;;;;;6.49;54.91;94870.94;4213425;28;20051;-57
2023/02/21 02:40:33;;;;;;;10.65;4.70;;;;;;;6.51;55.23;94873.41;4189314;28;20040;-59
2023/02/21 02:43:00;;;;;;;9.23;4.55;;;;;;;6.50;55.41;94877.81;4197549;28;20087;-58
2023/02/21 02:45:22;;;;;;;7.40;4.47;;;;;;;6.50;55.05;94876.97;4187661;28;20049;-58
2023/02/21 02:47:29;;;;;;;7.55;4.07;;;;;;;6.44;55.69;94875.72;4194173;28;20115;-56
2023/02/21 02:49:32;;;;;;;8.35;4.82;;;;;;;6.36;55.53;94880.72;4189391;28;20045;-53
2023/02/21 02:51:35;;;;;;;7.95;4.00;;;;;;;6.30;55.78;94861.28;4197952;28;20045;-57
2023/02/21 02:53:36;;;;;;;9.02;4.65;;;;;;;6.30;55.75;94868.22;4202492;28;20048;-54
2023/02/21 02:55:42;;;;;;;11.35;4.30;;;;;;;6.12;56.45;94866.22;4213774;28;20079;-59
2023/02/21 02:57:47;;;;;;;8.70;4.20;;;;;;;6.19;56.41;94883.91;4195231;28;20084;-59
2023/02/21 02:59:49;;;;;;;8.15;4.10;;;;;;;6.26;55.57;94887.66;4187482;28;20442;-58
2023/02/21 03:02:10;;;;;;;7.30;4.20;;;;;;;6.25;56.07;94865.19;4205026;28;20048;-57
2023/02/21 03:04:38;;;;;;;5.78;3.78;;;;;;;6.32;56.05;94871.53;4207870;28;20079;-57
2023/02/21 03:06:50;;;;;;;7.50;4.13;;;;;;;6.20;56.17;94869.97;4170683;28;20055;-58
2023/02/21 03:09:08;;;;;;;6.95;3.80;;;;;;;6.12;56.47;94868.81;4189461;28;20538;-58
2023/02/21 03:11:15;;;;;;;10.30;4.13;;;;;;;6.09;56.91;94865.66;4188765;28;20505;-58
2023/02/21 03:13:21;;;;;;;7.78;4.50;;;;;;;6.12;56.28;94871.41;4212402;28;20052;-57
2023/02/21 03:15:36;;;;;;;6.82;3.97;;;;;;;6.10;56.40;94877.72;4199430;28;20076;-56
2023/02/21 03:17:43;;;;;;;8.20;3.88;;;;;;;6.14;56.28;94866.91;4179135;28;20045;-58
2023/02/21 03:19:46;;;;;;;6.75;4.25;;;;;;;6.25;56.40;94858.22;4196929;28;20489;-57
2023/02/21 03:21:51;;;;;;;9.00;4.28;;;;;;;6.30;55.92;94857.81;4213419;28;20074;-55
2023/02/21 03:23:55;;;;;;;7.43;3.90;;;;;;;6.29;55.93;94859.59;4184977;28;20503;-55
2023/02/21 03:26:00;;;;;;;9.63;3.90;;;;;;;6.23;55.97;94854.09;4211749;28;20079;-58
2023/02/21 03:28:02;;;;;;;9.48;4.25;;;;;;;6.23;56.30;94848.91;4212003;28;20051;-61
2023/02/21 03:30:04;;;;;;;6.80;4.10;;;;;;;6.19;56.17;94852.72;4212558;28;20600;-59
2023/02/21 03:34:19;;;;;;;7.35;3.88;;;;;;;5.95;56.90;94856.41;4211475;28;20052;-57
2023/02/21 03:36:21;;;;;;;6.90;3.97;;;;;;;5.98;57.17;94856.16;4213208;28;20102;-60
2023/02/21 03:38:23;;;;;;;7.65;3.97;;;;;;;6.03;56.75;94853.16;4208009;28;20629;-56
2023/02/21 03:40:29;;;;;;;10.10;4.22;;;;;;;6.10;56.31;94855.13;4187354;28;20052;-59
2023/02/21 03:42:30;;;;;;;11.02;4.28;;;;;;;6.09;56.42;94844.88;4205569;28;20052;-59
2023/02/21 03:44:32;;;;;;;7.40;3.83;;;;;;;5.87;56.58;94830.16;4204651;28;20045;-55
2023/02/21 03:46:34;;;;;;;13.63;4.20;;;;;;;5.82;57.17;94845.34;4207387;28;20047;-55
2023/02/21 03:48:35;;;;;;;9.35;3.97;;;;;;;5.64;57.04;94830.31;4197669;28;20499;-53
2023/02/21 03:50:37;;;;;;;8.50;4.20;;;;;;;5.63;57.67;94862.41;4192201;28;20049;-55
2023/02/21 03:52:39;;;;;;;6.97;3.40;;;;;;;5.67;57.88;94861.22;4190803;28;20324;-55
2023/02/21 03:54:41;;;;;;;5.68;3.22;;;;;;;5.76;57.93;94862.25;4209868;28;20060;-56
2023/02/21 03:56:42;;;;;;;5.80;3.50;;;;;;;5.66;57.44;94872.59;4191176;28;20057;-56
2023/02/21 03:58:44;;;;;;;6.60;3.92;;;;;;;5.67;57.46;94881.19;4195478;28;20607;-56
2023/02/21 04:00:46;;;;;;;5.93;3.28;;;;;;;5.59;57.72;94845.44;4212105;28;20059;-54
2023/02/21 04:02:48;;;;;;;5.70;3.08;;;;;;;5.60;57.91;94865.28;4209584;28;20097;-57
2023/02/21 04:04:50;;;;;;;8.38;3.38;;;;;;;5.46;58.31;94865.56;4201012;28;20094;-54
2023/02/21 04:06:51;;;;;;;6.28;3.17;;;;;;;5.54;57.77;94852.78;4212437;28;20051;-58
2023/02/21 04:08:53;;;;;;;7.75;3.03;;;;;;;5.44;58.25;94867.47;4212245;28;20673;-55
2023/02/21 04:10:54;;;;;;;6.60;3.25;;;;;;;5.51;57.76;94860.84;4211684;28;20126;-55
2023/02/21 04:12:56;;;;;;;4.85;3.33;;;;;;;5.50;57.88;94874.75;4203293;28;20056;-57
2023/02/21 04:14:58;;;;;;;7.28;3.42;;;;;;;5.54;57.46;94881.38;4203670;28;20181;-57
2023/02/21 04:16:59;;;;;;;9.63;3.40;;;;;;;5.67;57.55;94879.41;4210433;28;20591;-56
2023/02/21 04:19:01;;;;;;;5.97;3.15;;;;;;;5.61;57.72;94863.50;4209411;28;20087;-57
2023/02/21 04:21:03;;;;;;;6.20;2.50;;;;;;;5.51;57.32;94900.63;4211379;28;20127;-58
2023/02/21 04:23:04;;;;;;;9.13;3.10;;;;;;;5.12;58.33;94891.66;4207836;28;20044;-56
2023/02/21 04:25:07;;;;;;;7.43;3.45;;;;;;;5.07;59.29;94878.19;4207533;28;20101;-56
2023/02/21 04:27:08;;;;;;;6.93;3.00;;;;;;;5.19;58.73;94898.00;4211167;28;20674;-56
2023/02/21 04:29:10;;;;;;;9.65;3.58;;;;;;;5.22;58.42;94907.31;4211347;28;20056;-58
2023/02/21 04:31:14;;;;;;;4.85;3.08;;;;;;;5.29;58.32;94901.53;4209988;28;20080;-58
2023/02/21 04:33:16;;;;;;;8.48;3.50;;;;;;;5.46;57.87;94897.59;4211206;28;20051;-57
2023/02/21 04:35:18;;;;;;;8.05;2.90;;;;;;;5.51;57.64;94908.44;4212369;28;20119;-59
2023/02/21 04:37:20;;;;;;;5.57;3.20;;;;;;;5.56;57.99;94902.03;4211248;28;20509;-56
2023/02/21 04:39:21;;;;;;;7.03;3.40;;;;;;;5.65;57.37;94911.69;4212004;28;20583;-58
2023/02/21 04:41:23;;;;;;;5.45;3.20;;;;;;;5.70;57.57;94912.97;4199823;28;20061;-52
2023/02/21 04:43:25;;;;;;;6.68;3.50;;;;;;;5.77;57.44;94912.50;4188785;28;20045;-55
2023/02/21 04:45:27;;;;;;;7.60;3.85;;;;;;;5.80;56.88;94913.03;4179049;28;20099;-55
2023/02/21 04:47:29;;;;;;;6.13;3.10;;;;;;;5.81;56.79;94900.84;4181139;28;20102;-50
2023/02/21 04:49:30;;;;;;;6.65;3.47;;;;;;;5.86;56.88;94909.94;4195484;28;20048;-58
2023/02/21 04:51:32;;;;;;;6.55;3.53;;;;;;;5.91;56.97;94899.16;4184146;28;20048;-54
2023/02/21 04:53:34;;;;;;;7.78;3.40;;;;;;;5.91;57.25;94893.97;4184771;28;20063;-56
2023/02/21 04:55:35;;;;;;;7.00;3.72;;;;;;;5.95;56.59;94903.19;4195652;28;20080;-50
2023/02/21 04:57:37;;;;;;;8.60;3.80;;;;;;;5.91;57.20;94899.16;4183434;28;20049;-57
2023/02/21 04:59:39;;;;;;;6.35;3.45;;;;;;;5.98;57.02;94892.56;4179471;28;20494;-55
2023/02/21 05:01:40;;;;;;;5.47;3.53;;;;;;;6.02;56.90;94874.91;4184036;28;20098;-57
2023/02/21 05:03:42;;;;;;;6.53;3.88;;;;;;;5.98;56.22;94899.53;4199504;28;20429;-55
2023/02/21 05:05:44;;;;;;;14.88;3.58;;;;;;;5.70;56.72;94884.38;4199117;28;20106;-54
2023/02/21 05:07:45;;;;;;;7.50;4.05;;;;;;;5.53;57.90;94880.56;4196237;28;20133;-57
2023/02/21 05:09:47;;;;;;;6.38;3.50;;;;;;;5.53;58.24;94877.13;4182693;28;20053;-54
2023/02/21 05:11:48;;;;;;;6.47;4.15;;;;;;;5.67;57.81;94873.41;4181943;28;20503;-54
2023/02/21 05:13:50;;;;;;;10.13;3.45;;;;;;;5.79;57.79;94851.63;4196185;28;20079;-58
2023/02/21 05:15:52;;;;;;;5.78;4.05;;;;;;;5.53;58.43;94858.94;4181499;28;20561;-53
2023/02/21 05:17:53;;;;;;;8.45;3.78;;;;;;;5.49;57.88;94853.16;4182691;28;20064;-52
2023/02/21 05:19:55;;;;;;;7.40;3.67;;;;;;;5.61;58.15;94858.31;4193428;28;20458;-57
2023/02/21 05:21:59;;;;;;;8.65;3.65;;;;;;;5.57;58.00;94844.75;4198716;28;20137;-56
2023/02/21 05:24:01;;;;;;;8.43;4.18;;;;;;;5.63;57.90;94833.00;4199512;28;20478;-57
2023/02/21 05:26:11;;;;;;;10.95;3.72;;;;;;;5.52;57.63;94839.09;4198698;28;20051;-57
2023/02/21 05:28:12;;;;;;;8.38;4.22;;;;;;;5.57;57.86;94843.91;4187025;28;20136;-55
2023/02/21 05:30:17;;;;;;;12.65;4.07;;;;;;;5.70;57.19;94840.19;4183826;28;20097;-55
2023/02/21 05:32:20;;;;;;;11.85;4.70;;;;;;;5.53;57.29;94851.16;4187412;28;20052;-55
2023/02/21 05:34:22;;;;;;;7.22;4.20;;;;;;;5.56;57.70;94847.47;4199368;28;20103;-56
2023/02/21 05:36:30;;;;;;;13.80;4.78;;;;;;;5.73;57.40;94846.91;4199210;28;20113;-58
2023/02/21 05:38:32;;;;;;;11.65;4.20;;;;;;;5.83;57.18;94853.00;4192623;28;20049;-54
2023/02/21 05:40:33;;;;;;;10.27;3.92;;;;;;;5.97;56.80;94864.06;4187469;28;20044;-55
2023/02/21 05:42:35;;;;;;;5.78;4.03;;;;;;;6.10;56.54;94855.13;4194296;28;20057;-53
2023/02/21 05:44:36;;;;;;;13.25;4.72;;;;;;;6.08;56.41;94872.63;4185556;28;20036;-58
2023/02/21 05:46:38;;;;;;;11.40;5.18;;;;;;;5.99;56.11;94862.19;4196771;28;20131;-56
2023/02/21 05:48:40;;;;;;;16.70;5.00;;;;;;;5.95;56.65;94866.78;4199710;28;20083;-61
2023/02/21 05:50:41;;;;;;;11.27;4.55;;;;;;;6.13;56.17;94874.84;4210869;28;20454;-60
2023/02/21 05:52:43;;;;;;;9.40;4.90;;;;;;;6.30;56.22;94874.28;4187189;28;20060;-59
2023/02/21 05:54:44;;;;;;;23.77;5.53;;;;;;;6.45;55.60;94877.34;4183754;28;20052;-58
2023/02/21 05:56:49;;;;;;;10.82;4.72;;;;;;;6.74;55.05;94882.69;4200525;28;20086;-57
2023/02/21 05:58:51;;;;;;;7.80;5.10;;;;;;;6.51;55.11;94897.66;4205878;28;20059;-60
2023/02/21 06:00:52;;;;;;;13.45;4.22;;;;;;;6.57;55.16;94897.13;4200940;28;20052;-58
2023/02/21 06:02:54;;;;;;;9.98;5.35;;;;;;;6.50;54.88;94888.22;4195820;28;20080;-59
2023/02/21 06:04:56;;;;;;;9.70;4.50;;;;;;;6.40;55.26;94895.13;4182274;28;20596;-58
2023/02/21 06:06:58;;;;;;;8.20;4.18;;;;;;;6.35;55.64;94907.72;4191219;28;20078;-59
2023/02/21 06:08:59;;;;;;;9.25;4.32;;;;;;;6.45;55.45;94898.16;4198408;28;20136;-58
2023/02/21 06:11:01;;;;;;;14.05;5.10;;;;;;;6.22;55.54;94894.09;4194919;28;20053;-59
2023/02/21 06:13:02;;;;;;;16.67;5.18;;;;;;;6.32;55.78;94910.56;4182188;28;20111;-60
2023/02/21 06:15:07;;;;;;;16.85;4.68;;;;;;;6.34;55.66;94888.66;4192587;28;20048;-60
2023/02/21 06:17:09;;;;;;;9.10;4.28;;;;;;;6.06;55.58;94897.94;4197431;28;20049;-59
2023/02/21 06:19:12;;;;;;;7.75;5.30;;;;;;;5.98;56.25;94894.31;4197830;28;20067;-58
2023/02/21 06:21:13;;;;;;;10.77;4.80;;;;;;;6.22;56.49;94902.72;4192440;28;20049;-59
2023/02/21 06:23:15;;;;;;;9.95;4.80;;;;;;;6.50;55.71;94897.81;4187590;28;20060;-63
2023/02/21 06:25:17;;;;;;;12.98;5.03;;;;;;;6.71;54.76;94902.94;4183041;28;20085;-56
2023/02/21 06:27:19;;;;;;;10.45;4.80;;;;;;;6.82;54.46;94905.50;4187426;28;20079;-57
2023/02/21 06:29:21;;;;;;;20.27;5.65;;;;;;;6.84;54.25;94906.19;4198741;28;20617;-55
2023/02/21 06:31:23;;;;;;;9.77;4.88;;;;;;;6.93;53.96;94901.97;4185032;28;20061;-55
2023/02/21 06:33:25;;;;;;;10.15;5.18;;;;;;;6.85;54.42;94897.41;4211782;28;20121;-56
2023/02/21 06:35:26;;;;;;;17.45;5.35;;;;;;;7.09;53.80;94904.06;4214179;28;20459;-56
2023/02/21 06:37:28;;;;;;;12.15;5.45;;;;;;;7.30;52.93;94898.78;4213758;28;20098;-58
2023/02/21 06:39:30;;;;;;;14.63;5.15;;;;;;;7.46;52.48;94908.66;4213957;28;20052;-56
2023/02/21 06:41:31;;;;;;;17.27;5.18;;;;;;;7.62;52.28;94915.97;4189539;28;20129;-57
2023/02/21 06:43:36;;;;;;;13.13;4.53;;;;;;;7.75;51.96;94906.91;4189605;28;20069;-56
2023/02/21 06:45:38;;;;;;;16.15;4.70;;;;;;;7.89;51.43;94916.09;4192870;28;20048;-57
2023/02/21 06:47:40;;;;;;;16.10;5.78;;;;;;;7.98;50.65;94906.66;4204495;28;20075;-55
2023/02/21 06:49:42;;;;;;;15.90;5.30;;;;;;;8.09;51.08;94909.13;4197695;28;20063;-55
2023/02/21 06:51:43;;;;;;;11.57;5.55;;;;;;;8.23;50.25;94899.22;4190776;28;20048;-54
2023/02/21 06:53:48;;;;;;;15.82;6.20;;;;;;;8.22;50.53;94908.84;4213959;28;20622;-57
2023/02/21 06:55:51;;;;;;;19.48;6.13;;;;;;;8.22;50.94;94898.41;4213944;28;20056;-57
2023/02/21 06:57:52;;;;;;;13.88;5.82;;;;;;;8.07;51.09;94908.44;4212723;28;20585;-54
2023/02/21 06:59:55;;;;;;;12.32;5.85;;;;;;;8.03;51.15;94912.28;4201780;28;20165;-57
2023/02/21 07:01:57;;;;;;;16.73;5.95;;;;;;;7.97;51.44;94907.59;4212290;28;20066;-55
2023/02/21 07:03:59;;;;;;;10.07;5.57;;;;;;;8.13;51.10;94897.44;4213829;28;20044;-55
2023/02/21 07:06:00;;;;;;;14.00;5.45;;;;;;;8.33;50.95;94910.47;4213151;28;20058;-56
2023/02/21 07:08:02;;;;;;;13.68;5.70;;;;;;;8.49;50.08;94910.72;4214048;28;20052;-54
2023/02/21 07:10:04;;;;;;;18.45;5.90;;;;;;;8.52;50.53;94894.78;4214046;28;20105;-57
2023/02/21 07:12:07;;;;;;;10.45;4.40;;;;;;;8.45;49.36;94903.31;4213532;28;20460;-57
2023/02/21 07:14:10;;;;;;;13.82;5.00;;;;;;;8.47;49.52;94917.06;4213323;28;20444;-57
2023/02/21 07:16:13;;;;;;;14.95;4.80;;;;;;;8.17;49.84;94896.22;4212143;28;20448;-56
2023/02/21 07:18:15;;;;;;;18.05;5.43;;;;;;;8.09;51.01;94909.13;4213116;28;20047;-58
2023/02/21 07:20:16;;;;;;;13.20;5.00;;;;;;;8.06;50.63;94908.56;4213549;28;20063;-57
2023/02/21 07:22:24;;;;;;;12.82;5.85;;;;;;;8.19;51.19;94906.47;4210704;28;20494;-57
2023/02/21 07:24:26;;;;;;;12.95;5.35;;;;;;;8.35;50.11;94906.75;4204066;28;20398;-57
2023/02/21 07:26:28;;;;;;;11.63;5.13;;;;;;;8.33;49.62;94897.41;4191203;28;20163;-55
2023/02/21 07:28:29;;;;;;;15.30;4.95;;;;;;;8.49;50.17;94896.84;4180827;28;20077;-55
2023/02/21 07:30:31;;;;;;;8.82;5.45;;;;;;;8.62;50.17;94889.53;4185330;28;20394;-56
2023/02/21 07:32:33;;;;;;;13.10;5.68;;;;;;;8.73;49.82;94892.00;4187479;28;20045;-56
2023/02/21 07:34:34;;;;;;;16.45;5.75;;;;;;;8.68;49.42;94888.16;4180573;28;20593;-57
2023/02/21 07:36:37;;;;;;;11.45;5.15;;;;;;;8.81;49.67;94891.25;4181641;28;20111;-56
2023/02/21 07:38:40;;;;;;;15.85;5.20;;;;;;;8.72;49.06;94873.84;4196596;28;20707;-62
2023/02/21 07:40:42;;;;;;;17.75;5.70;;;;;;;8.85;49.06;94878.75;4200217;28;20059;-55
2023/02/21 07:42:44;;;;;;;14.35;5.88;;;;;;;8.99;48.82;94875.63;4195711;28;20060;-57
2023/02/21 07:44:46;;;;;;;8.90;5.05;;;;;;;9.15;48.24;94880.25;4207707;28;20060;-53
2023/02/21 07:46:48;;;;;;;16.48;5.95;;;;;;;9.34;47.92;94885.38;4210094;28;20051;-58
2023/02/21 07:48:50;;;;;;;18.63;6.00;;;;;;;9.32;48.18;94881.25;4194798;28;20422;-56
2023/02/21 07:50:51;;;;;;;15.07;6.15;;;;;;;9.30;48.43;94877.97;4192526;28;20053;-55
2023/02/21 07:52:53;;;;;;;19.92;5.57;;;;;;;9.34;48.35;94874.91;4196277;28;20056;-54
2023/02/21 07:54:55;;;;;;;18.27;6.22;;;;;;;9.33;48.13;94869.81;4183367;28;20044;-58
2023/02/21 07:56:56;;;;;;;14.07;6.43;;;;;;;9.27;48.80;94866.00;4189800;28;20060;-58
2023/02/21 07:58:58;;;;;;;13.98;6.03;;;;;;;9.32;48.46;94870.78;4189843;28;20059;-54
2023/02/21 08:01:01;;;;;;;19.65;5.90;;;;;;;9.09;48.59;94849.47;4207169;28;20090;-53
2023/02/21 08:03:02;;;;;;;15.13;5.88;;;;;;;9.07;48.69;94854.00;4209086;28;20048;-58
2023/02/21 08:05:06;;;;;;;13.07;5.65;;;;;;;8.95;48.71;94856.00;4190543;28;20041;-56
2023/02/21 08:07:08;;;;;;;16.92;6.10;;;;;;;9.01;49.22;94845.78;4180233;28;20060;-53
2023/02/21 08:09:09;;;;;;;11.48;5.55;;;;;;;9.06;48.70;94866.25;4193985;28;20048;-53
2023/02/21 08:11:11;;;;;;;11.05;5.28;;;;;;;9.04;49.11;94856.94;4193275;28;20048;-56
2023/02/21 08:13:13;;;;;;;13.23;5.38;;;;;;;9.16;49.22;94860.97;4189250;28;20049;-57
2023/02/21 08:15:15;;;;;;;24.02;6.03;;;;;;;9.25;49.11;94860.09;4180175;28;20045;-59
2023/02/21 08:17:16;;;;;;;12.52;6.20;;;;;;;9.34;48.77;94855.78;4191429;28;20087;-58
2023/02/21 08:19:18;;;;;;;10.75;5.22;;;;;;;9.41;48.69;94870.72;4195903;28;20059;-57
2023/02/21 08:21:20;;;;;;;18.05;5.55;;;;;;;9.49;48.03;94867.38;4188337;28;20407;-54
2023/02/21 08:23:22;;;;;;;11.55;5.75;;;;;;;9.53;47.68;94863.50;4180123;28;20127;-56
2023/02/21 08:25:23;;;;;;;15.10;6.57;;;;;;;9.58;48.10;94863.06;4193456;28;20544;-54
2023/02/21 08:27:25;;;;;;;14.55;6.45;;;;;;;9.62;48.09;94864.41;4184465;28;20049;-58
2023/02/21 08:29:27;;;;;;;16.20;6.72;;;;;;;9.69;47.92;94854.16;4188204;28;20053;-53
2023/02/21 08:31:29;;;;;;;20.23;6.60;;;;;;;9.70;47.84;94859.25;4178565;28;20128;-56
2023/02/21 08:33:31;;;;;;;18.17;6.38;;;;;;;9.59;47.81;94851.59;4180184;28;20045;-57
2023/02/21 08:35:32;;;;;;;13.43;6.45;;;;;;;9.62;47.90;94853.94;4179845;28;20095;-55
2023/02/21 08:37:36;;;;;;;16.35;7.50;;;;;;;9.78;48.12;94835.75;4180231;28;20049;-54
2023/02/21 08:39:37;;;;;;;16.17;7.40;;;;;;;9.92;47.36;94842.25;4180526;28;20061;-54
2023/02/21 08:41:44;;;;;;;18.25;7.57;;;;;;;9.87;46.85;94854.13;4191622;28;20041;-55
2023/02/21 08:43:45;;;;;;;15.98;7.32;;;;;;;9.81;46.81;94840.69;4206177;28;20401;-54
2023/02/21 08:45:47;;;;;;;16.02;7.45;;;;;;;9.80;47.54;94849.50;4211390;28;20488;-59
2023/02/21 08:47:50;;;;;;;13.20;6.43;;;;;;;9.90;46.83;94849.44;4186537;28;20052;-54
2023/02/21 08:49:52;;;;;;;14.98;6.75;;;;;;;10.01;47.15;94840.53;4185914;28;20057;-54
2023/02/21 08:51:53;;;;;;;15.25;7.18;;;;;;;10.15;46.67;94826.91;4181955;28;20088;-57
2023/02/21 08:53:55;;;;;;;14.05;6.50;;;;;;;10.28;46.79;94833.50;4196038;28;20086;-56
2023/02/21 08:55:57;;;;;;;11.73;6.60;;;;;;;10.28;46.41;94838.75;4200324;28;20084;-58
2023/02/21 08:57:59;;;;;;;20.13;7.28;;;;;;;10.30;46.79;94828.97;4194447;28;20048;-58
2023/02/21 09:00:01;;;;;;;22.83;6.88;;;;;;;10.36;46.49;94836.22;4179782;28;20080;-55
2023/02/21 09:02:02;;;;;;;19.38;7.50;;;;;;;10.48;46.22;94849.88;4186895;28;20055;-57
2023/02/21 09:04:05;;;;;;;18.85;6.90;;;;;;;10.55;45.84;94837.81;4196091;28;20088;-57
2023/02/21 09:06:07;;;;;;;18.70;6.95;;;;;;;10.56;46.12;94831.56;4182970;28;20135;-55
2023/02/21 09:08:10;;;;;;;23.42;7.65;;;;;;;10.60;45.66;94831.13;4190146;28;20049;-53
2023/02/21 09:10:11;;;;;;;20.23;7.65;;;;;;;10.68;45.68;94832.94;4190283;28;20102;-57
2023/02/21 09:12:13;;;;;;;20.63;7.22;;;;;;;10.80;45.81;94823.84;4196021;28;20056;-54
2023/02/21 09:14:15;;;;;;;16.65;7.70;;;;;;;10.92;45.47;94824.38;4196887;28;20119;-51
2023/02/21 09:16:17;;;;;;;20.33;7.18;;;;;;;11.10;45.47;94826.91;4194609;28;20068;-56
2023/02/21 09:18:19;;;;;;;14.65;6.88;;;;;;;11.31;44.51;94839.56;4185824;28;20048;-50
2023/02/21 09:20:23;;;;;;;16.27;7.45;;;;;;;11.38;44.42;94832.72;4180264;28;20049;-56
2023/02/21 09:22:25;;;;;;;51.13;23.92;;;;;;;11.52;44.61;94827.81;4183173;28;20437;-54
2023/02/21 09:24:26;;;;;;;15.73;7.30;;;;;;;11.67;43.79;94828.81;4188453;28;20110;-56
2023/02/21 09:26:31;;;;;;;14.32;6.50;;;;;;;11.83;43.58;94818.34;4190639;28;20045;-58
2023/02/21 09:28:32;;;;;;;13.82;7.55;;;;;;;12.06;43.43;94823.78;4181461;28;20053;-54
2023/02/21 09:30:34;;;;;;;18.73;7.22;;;;;;;12.19;43.05;94812.78;4195110;28;20102;-61
2023/02/21 09:32:37;;;;;;;18.90;7.38;;;;;;;12.39;42.28;94805.38;4186602;28;20388;-57
2023/02/21 09:34:39;;;;;;;17.10;7.20;;;;;;;12.57;42.13;94805.16;4191468;28;20113;-52
2023/02/21 09:36:40;;;;;;;12.82;5.93;;;;;;;12.66;41.50;94805.94;4193268;28;20090;-55
2023/02/21 09:38:42;;;;;;;17.00;6.55;;;;;;;12.76;41.23;94797.88;4181157;28;20105;-54
2023/02/21 09:40:49;;;;;;;22.30;7.45;;;;;;;12.90;41.37;94795.31;4185779;28;20049;-54
2023/02/21 09:42:52;;;;;;;14.38;6.55;;;;;;;13.12;40.67;94803.47;4191903;28;20048;-53
2023/02/21 09:44:54;;;;;;;19.05;6.38;;;;;;;13.37;40.53;94795.47;4183507;28;20048;-62
2023/02/21 09:47:04;;;;;;;13.25;5.90;;;;;;;13.56;39.66;94794.22;4193589;28;20063;-60
2023/02/21 09:49:12;;;;;;;14.38;6.70;;;;;;;13.77;39.69;94799.66;4189984;28;20063;-58
2023/02/21 09:51:15;;;;;;;11.38;5.82;;;;;;;13.92;38.39;94787.34;4208898;28;20097;-61
2023/02/21 09:53:25;;;;;;;13.57;5.80;;;;;;;14.01;38.85;94782.81;4214337;28;20113;-58
2023/02/21 09:55:34;;;;;;;16.20;6.25;;;;;;;14.19;38.70;94782.50;4213015;28;20130;-59
2023/02/21 09:57:36;;;;;;;13.90;6.57;;;;;;;13.60;38.32;94779.69;4213129;28;20399;-61
2023/02/21 09:59:38;;;;;;;11.35;5.88;;;;;;;13.79;38.62;94778.38;4213284;28;20583;-59
2023/02/21 10:01:58;;;;;;;19.15;7.03;;;;;;;13.98;38.19;94767.38;4209458;28;20134;-56
2023/02/21 10:04:18;;;;;;;18.15;6.43;;;;;;;14.01;37.15;94758.31;4213174;28;20048;-55
2023/02/21 10:06:33;;;;;;;11.70;5.70;;;;;;;14.22;37.32;94761.06;4212973;28;20043;-56
2023/02/21 10:08:36;;;;;;;;;;;;;;;14.55;37.65;94758.13;4213763;28;20048;-55
2023/02/21 10:10:54;;;;;;;16.67;6.78;;;;;;;14.84;37.06;94745.91;4214153;28;19927;-55
2023/02/21 10:13:20;;;;;;;20.67;6.00;;;;;;;15.10;36.31;94751.50;4210229;28;20052;-56
2023/02/21 10:15:53;;;;;;;14.82;5.07;;;;;;;15.25;35.39;94746.19;4205425;28;20052;-52
2023/02/21 10:17:54;;;;;;;9.70;5.28;;;;;;;15.46;34.95;94745.38;4213885;28;20070;-54
2023/02/21 10:20:00;;;;;;;7.90;3.90;;;;;;;15.58;33.43;94737.78;4206381;28;20136;-57
2023/02/21 10:22:13;;;;;;;7.40;2.70;;;;;;;15.60;31.21;94733.13;4199707;28;20045;-54
2023/02/21 10:24:22;;;;;;;4.78;2.60;;;;;;;15.51;30.38;94736.91;4211659;28;20091;-54
2023/02/21 10:26:27;;;;;;;7.47;2.58;;;;;;;15.60;29.91;94730.50;4214032;28;20448;-57
2023/02/21 10:28:29;;;;;;;4.22;1.73;;;;;;;15.72;29.52;94729.03;4212928;28;20148;-56
2023/02/21 10:30:36;;;;;;;4.10;1.80;;;;;;;15.88;29.52;94722.66;4211349;28;20470;-56
2023/02/21 10:32:37;;;;;;;2.22;1.25;;;;;;;15.96;29.03;94727.78;4210437;28;20064;-54
2023/02/21 10:34:42;;;;;;;2.22;1.38;;;;;;;16.13;29.08;94723.03;4211666;28;20097;-51
2023/02/21 10:36:48;;;;;;;2.60;1.60;;;;;;;16.22;28.94;94726.34;4199711;28;20048;-54
2023/02/21 10:38:56;;;;;;;3.78;1.33;;;;;;;16.22;29.16;94709.66;4187410;28;20078;-58
2023/02/21 10:41:02;;;;;;;4.72;1.65;;;;;;;16.25;28.76;94711.94;4206230;28;20059;-54
2023/02/21 10:43:15;;;;;;;2.85;1.27;;;;;;;16.35;28.04;94691.25;4193684;28;20052;-62
2023/02/21 10:45:18;;;;;;;3.90;1.67;;;;;;;16.37;27.14;94690.03;4198747;28;20062;-56
2023/02/21 10:47:33;;;;;;;3.22;1.92;;;;;;;16.15;27.73;94704.34;4190034;28;20065;-51
2023/02/21 10:49:41;;;;;;;4.82;1.80;;;;;;;16.23;27.92;94698.09;4197907;28;20583;-54
2023/02/21 10:51:43;;;;;;;4.85;1.25;;;;;;;16.52;27.63;94687.28;4203598;28;20394;-55
2023/02/21 10:53:46;;;;;;;5.88;1.70;;;;;;;16.68;27.47;94696.69;4214006;28;20048;-59
2023/02/21 10:56:11;;;;;;;4.07;1.93;;;;;;;16.74;27.44;94687.97;4213713;28;20052;-54
2023/02/21 10:58:18;;;;;;;3.13;1.80;;;;;;;16.70;27.49;94678.81;4176438;28;20068;-52
2023/02/21 11:00:37;;;;;;;9.05;2.30;;;;;;;16.79;27.22;94661.75;4180119;28;20048;-56
2023/02/21 11:02:39;;;;;;;3.85;1.98;;;;;;;16.85;27.18;94667.31;4191967;28;20056;-49
2023/02/21 11:04:42;;;;;;;5.70;2.30;;;;;;;17.03;27.14;94658.78;4185717;28;20040;-56
2023/02/21 11:06:46;;;;;;;5.55;2.08;;;;;;;17.10;26.97;94659.63;4190264;28;20290;-55
2023/02/21 11:08:48;;;;;;;4.65;1.85;;;;;;;17.11;26.53;94662.06;4193016;28;20052;-55
2023/02/21 11:10:54;;;;;;;7.05;2.10;;;;;;;17.18;26.69;94654.16;4182057;28;20096;-54
2023/02/21 11:13:19;;;;;;;2.33;1.60;;;;;;;17.11;26.76;94653.31;4186712;28;20056;-58
2023/02/21 11:15:21;;;;;;;2.75;1.20;;;;;;;16.98;26.74;94656.75;4185055;28;20138;-54
2023/02/21 11:17:25;;;;;;;3.80;1.60;;;;;;;16.96;27.11;94650.84;4181536;28;20521;-54
2023/02/21 11:19:27;;;;;;;;;;;;;;;16.92;26.96;94642.47;4183430;28;20102;-55
2023/02/21 11:21:29;;;;;;;7.50;1.90;;;;;;;16.56;27.14;94648.00;4192180;28;19970;-56
2023/02/21 11:23:32;;;;;;;6.28;1.50;;;;;;;16.89;27.22;94634.16;4197596;28;20056;-55
2023/02/21 11:25:40;;;;;;;8.82;2.17;;;;;;;16.81;27.35;94647.53;4194693;28;20041;-57
2023/02/21 11:27:42;;;;;;;5.03;2.20;;;;;;;16.87;27.07;94620.28;4181319;28;20045;-57
2023/02/21 11:29:49;;;;;;;5.15;2.00;;;;;;;17.04;26.85;94632.13;4182730;28;20064;-54
2023/02/21 11:31:51;;;;;;;;;;;;;;;17.01;26.76;94631.72;4196164;28;20498;-57
2023/02/21 11:34:01;;;;;;;4.07;1.30;;;;;;;16.92;26.66;94631.91;4196615;28;19921;-59
2023/02/21 11:36:16;;;;;;;3.28;1.13;;;;;;;16.96;27.04;94625.19;4188861;28;20529;-55
2023/02/21 11:38:36;;;;;;;6.53;1.88;;;;;;;16.81;27.21;94611.31;4180644;28;20081;-55
2023/02/21 11:40:50;;;;;;;3.90;2.05;;;;;;;16.90;27.57;94618.03;4190361;28;20052;-53
2023/02/21 11:43:13;;;;;;;4.30;2.25;;;;;;;16.81;27.54;94610.50;4194379;28;20128;-54
2023/02/21 11:45:18;;;;;;;4.10;1.77;;;;;;;16.99;27.46;94608.09;4210442;28;20048;-56
2023/02/21 11:47:27;;;;;;;4.75;1.70;;;;;;;17.08;27.57;94604.25;4206374;28;20053;-53
2023/02/21 11:49:38;;;;;;;2.80;1.80;;;;;;;17.27;27.31;94599.16;4187494;28;20092;-58
2023/02/21 11:51:44;;;;;;;3.08;1.60;;;;;;;17.28;27.10;94593.69;4188710;28;20083;-55
2023/02/21 11:53:46;;;;;;;4.18;1.80;;;;;;;17.00;27.18;94607.09;4212214;28;20132;-55
2023/02/21 11:55:58;;;;;;;11.38;1.65;;;;;;;17.13;27.45;94583.28;4212991;28;20059;-54
2023/02/21 11:58:24;;;;;;;3.97;1.65;;;;;;;16.99;27.53;94594.84;4211192;28;20056;-58
2023/02/21 12:01:00;;;;;;;2.80;1.70;;;;;;;17.10;27.61;94581.06;4212993;28;20048;-54
2023/02/21 12:03:11;;;;;;;4.65;1.60;;;;;;;17.19;27.53;94582.47;4212249;28;20398;-57
2023/02/21 12:05:46;;;;;;;3.42;1.52;;;;;;;17.33;27.51;94574.53;4213109;28;20052;-60
2023/02/21 12:07:55;;;;;;;2.45;1.30;;;;;;;17.58;27.54;94570.25;4186341;28;20143;-59